createdAt,value
2019-04-14T00:02:03.178Z,96129.56
2019-04-14T00:04:31.265Z,96119.63
2019-04-14T00:06:59.200Z,96107.13
2019-04-14T00:09:27.301Z,96105.27
2019-04-14T00:11:54.925Z,96100.59
2019-04-14T00:14:22.894Z,96096.38
2019-04-14T00:16:51.034Z,96107.48
2019-04-14T00:19:18.065Z,96111.70
2019-04-14T00:21:45.532Z,96107.73
2019-04-14T00:24:13.849Z,96103.77
2019-04-14T00:26:42.270Z,96108.80
2019-04-14T00:29:10.908Z,96108.80
2019-04-14T00:31:38.906Z,96116.06
2019-04-14T00:34:07.139Z,96104.95
2019-04-14T00:36:34.815Z,96111.27
2019-04-14T00:39:03.124Z,96105.30
2019-04-14T00:41:41.332Z,96097.95
2019-04-14T00:44:01.349Z,96098.77
2019-04-14T00:46:31.226Z,96093.98
2019-04-14T00:48:58.200Z,96093.87
2019-04-14T00:51:26.531Z,96088.73
2019-04-14T00:53:53.897Z,96084.52
2019-04-14T00:56:21.489Z,96082.63
2019-04-14T00:58:49.697Z,96089.88
2019-04-14T01:01:17.556Z,96091.52
2019-04-14T01:03:45.877Z,96090.23
2019-04-14T01:06:14.329Z,96092.23
2019-04-14T01:08:42.436Z,96089.66
2019-04-14T01:11:09.662Z,96087.44
2019-04-14T01:13:37.538Z,96092.13
2019-04-14T01:16:11.571Z,96095.16
2019-04-14T01:18:34.094Z,96090.94
2019-04-14T01:21:02.519Z,96083.23
2019-04-14T01:23:30.496Z,96089.30
2019-04-14T01:25:58.466Z,96081.23
2019-04-14T01:28:26.575Z,96076.33
2019-04-14T01:30:54.471Z,96073.05
2019-04-14T01:33:22.833Z,96067.55
2019-04-14T01:35:50.988Z,96066.83
2019-04-14T01:38:19.009Z,96066.47
2019-04-14T01:40:46.684Z,96061.33
2019-04-14T01:43:14.629Z,96066.58
2019-04-14T01:45:42.521Z,96065.80
2019-04-14T01:48:10.545Z,96065.19
2019-04-14T01:50:38.592Z,96072.08
2019-04-14T01:53:09.693Z,96076.16
2019-04-14T01:55:37.332Z,96076.88
2019-04-14T01:58:05.368Z,96080.73
2019-04-14T02:00:33.725Z,96082.41
2019-04-14T02:03:01.866Z,96081.80
2019-04-14T02:05:29.984Z,96086.23
2019-04-14T02:07:58.016Z,96084.34
2019-04-14T02:10:25.923Z,96092.41
2019-04-14T02:12:54.240Z,96089.95
2019-04-14T02:15:22.273Z,96100.95
2019-04-14T02:17:50.256Z,96099.20
2019-04-14T02:20:18.585Z,96098.84
2019-04-14T02:22:46.338Z,96098.87
2019-04-14T02:25:14.268Z,96095.84
2019-04-14T02:27:41.342Z,96096.88
2019-04-14T02:30:10.151Z,96089.27
2019-04-14T02:33:05.449Z,96086.94
2019-04-14T02:35:40.864Z,96089.98
2019-04-14T02:38:14.500Z,96087.88
2019-04-14T02:40:37.085Z,96089.63
2019-04-14T02:42:52.234Z,96086.23
2019-04-14T02:45:35.332Z,96085.30
2019-04-14T02:48:02.505Z,96089.05
2019-04-14T02:52:53.702Z,96093.63
2019-04-14T02:55:19.057Z,96095.38
2019-04-14T02:57:52.913Z,96091.98
2019-04-14T03:00:23.945Z,96095.84
2019-04-14T03:02:48.685Z,96096.44
2019-04-14T03:05:16.342Z,96097.63
2019-04-14T03:07:45.924Z,96094.58
2019-04-14T03:10:17.923Z,96096.58
2019-04-14T03:15:20.147Z,96100.09
2019-04-14T03:17:58.270Z,96096.69
2019-04-14T03:20:24.549Z,96092.36
2019-04-14T03:22:42.234Z,96093.08
2019-04-14T03:24:55.117Z,96091.69
2019-04-14T03:30:16.548Z,96087.00
2019-04-14T03:33:14.014Z,96085.72
2019-04-14T03:35:35.538Z,96088.76
2019-04-14T03:37:46.837Z,96081.14
2019-04-14T03:40:01.610Z,96094.47
2019-04-14T03:42:37.695Z,96089.44
2019-04-14T03:45:11.103Z,96091.19
2019-04-14T03:47:25.090Z,96085.69
2019-04-14T03:50:00.926Z,96086.27
2019-04-14T03:52:31.626Z,96085.44
2019-04-14T03:54:51.015Z,96091.37
2019-04-14T03:57:00.179Z,96087.05
2019-04-14T03:59:28.193Z,96087.41
2019-04-14T04:01:56.608Z,96090.80
2019-04-14T04:04:25.052Z,96094.41
2019-04-14T04:06:53.506Z,96093.59
2019-04-14T04:09:21.457Z,96095.23
2019-04-14T04:11:49.743Z,96100.02
2019-04-14T04:14:18.067Z,96098.73
2019-04-14T04:16:46.189Z,96095.45
2019-04-14T04:19:15.489Z,96096.63
2019-04-14T04:21:42.673Z,96099.20
2019-04-14T04:24:10.728Z,96096.38
2019-04-14T04:26:38.639Z,96101.63
2019-04-14T04:29:06.888Z,96103.02
2019-04-14T04:31:35.038Z,96104.91
2019-04-14T04:34:03.413Z,96105.27
2019-04-14T04:36:31.284Z,96109.45
2019-04-14T04:38:59.625Z,96114.27
2019-04-14T04:41:27.557Z,96111.55
2019-04-14T04:43:56.039Z,96112.95
2019-04-14T04:46:24.324Z,96118.80
2019-04-14T04:49:03.182Z,96118.80
2019-04-14T04:51:20.355Z,96111.80
2019-04-14T04:53:48.356Z,96120.70
2019-04-14T04:56:16.895Z,96122.09
2019-04-14T04:58:44.224Z,96122.56
2019-04-14T05:01:12.403Z,96119.98
2019-04-14T05:03:40.720Z,96116.48
2019-04-14T05:06:09.155Z,96116.84
2019-04-14T05:08:36.993Z,96122.34
2019-04-14T05:11:05.363Z,96117.56
2019-04-14T05:13:33.473Z,96125.52
2019-04-14T05:16:00.629Z,96123.56
2019-04-14T05:18:28.979Z,96123.45
2019-04-14T05:20:57.331Z,96134.45
2019-04-14T05:23:25.536Z,96133.31
2019-04-14T05:25:53.770Z,96142.70
2019-04-14T05:28:22.080Z,96141.92
2019-04-14T05:30:50.278Z,96147.78
2019-04-14T05:33:18.571Z,96151.06
2019-04-14T05:35:46.684Z,96157.28
2019-04-14T05:38:14.718Z,96152.27
2019-04-14T05:40:42.911Z,96162.34
2019-04-14T05:43:11.343Z,96156.55
2019-04-14T05:45:39.601Z,96160.23
2019-04-14T05:48:07.469Z,96150.69
2019-04-14T05:50:35.733Z,96154.95
2019-04-14T05:53:04.266Z,96165.85
2019-04-14T05:55:32.777Z,96164.95
2019-04-14T05:57:59.856Z,96163.34
2019-04-14T06:00:27.806Z,96167.55
2019-04-14T06:02:55.193Z,96171.32
2019-04-14T06:05:23.261Z,96176.13
2019-04-14T06:07:50.756Z,96170.73
2019-04-14T06:10:17.796Z,96174.44
2019-04-14T06:12:44.851Z,96174.69
2019-04-14T06:15:11.893Z,96181.13
2019-04-14T06:17:39.251Z,96182.42
2019-04-14T06:20:06.604Z,96175.87
2019-04-14T06:22:33.977Z,96177.27
2019-04-14T06:25:01.026Z,96181.13
2019-04-14T06:27:29.247Z,96179.56
2019-04-14T06:29:56.639Z,96180.06
2019-04-14T06:32:23.689Z,96185.20
2019-04-14T06:34:51.554Z,96183.22
2019-04-14T06:37:18.921Z,96176.98
2019-04-14T06:39:46.266Z,96176.86
2019-04-14T06:42:13.319Z,96181.10
2019-04-14T06:44:40.686Z,96178.70
2019-04-14T06:47:08.011Z,96178.80
2019-04-14T06:49:35.399Z,96175.33
2019-04-14T06:52:02.715Z,96182.77
2019-04-14T06:54:29.745Z,96180.05
2019-04-14T06:56:56.802Z,96178.77
2019-04-14T06:59:23.836Z,96180.56
2019-04-14T07:01:50.886Z,96180.03
2019-04-14T07:04:17.931Z,96183.14
2019-04-14T07:06:46.355Z,96181.82
2019-04-14T07:09:13.733Z,96177.13
2019-04-14T07:11:40.770Z,96179.39
2019-04-14T07:14:08.129Z,96183.12
2019-04-14T07:16:35.162Z,96178.56
2019-04-14T07:19:02.222Z,96183.80
2019-04-14T07:21:29.583Z,96186.26
2019-04-14T07:23:56.882Z,96184.95
2019-04-14T07:26:24.273Z,96190.97
2019-04-14T07:28:56.882Z,96191.38
2019-04-14T07:31:20.062Z,96187.34
2019-04-14T07:33:47.179Z,96183.98
2019-04-14T07:36:14.611Z,96183.55
2019-04-14T07:38:41.971Z,96185.53
2019-04-14T07:41:09.016Z,96180.78
2019-04-14T07:43:36.392Z,96184.05
2019-04-14T07:46:03.670Z,96191.66
2019-04-14T07:48:30.727Z,96190.16
2019-04-14T07:50:58.131Z,96189.66
2019-04-14T07:53:25.193Z,96189.94
2019-04-14T07:55:52.242Z,96196.20
2019-04-14T07:58:19.299Z,96193.49
2019-04-14T08:00:46.353Z,96190.58
2019-04-14T08:03:13.404Z,96186.56
2019-04-14T08:05:40.442Z,96192.77
2019-04-14T08:08:07.494Z,96190.78
2019-04-14T08:10:34.539Z,96188.69
2019-04-14T08:13:01.887Z,96182.73
2019-04-14T08:15:28.920Z,96188.58
2019-04-14T08:17:56.275Z,96181.56
2019-04-14T08:20:27.643Z,96190.91
2019-04-14T08:22:52.066Z,96191.33
2019-04-14T08:25:19.461Z,96198.21
2019-04-14T08:27:46.739Z,96194.75
2019-04-14T08:30:13.791Z,96198.66
2019-04-14T08:32:40.841Z,96195.61
2019-04-14T08:35:08.167Z,96191.22
2019-04-14T08:37:35.213Z,96192.86
2019-04-14T08:40:02.631Z,96185.16
2019-04-14T08:42:29.885Z,96194.20
2019-04-14T08:44:57.298Z,96195.83
2019-04-14T08:47:24.634Z,96196.77
2019-04-14T08:49:51.990Z,96194.78
2019-04-14T08:52:19.261Z,96185.88
2019-04-14T08:54:46.316Z,96189.05
2019-04-14T08:57:13.364Z,96189.31
2019-04-14T08:59:40.414Z,96192.96
2019-04-14T09:02:07.463Z,96190.73
2019-04-14T09:04:34.515Z,96191.53
2019-04-14T09:07:01.550Z,96191.53
2019-04-14T09:09:28.599Z,96199.44
2019-04-14T09:11:55.643Z,96195.63
2019-04-14T09:14:22.979Z,96198.34
2019-04-14T09:16:51.085Z,96194.62
2019-04-14T09:19:18.406Z,96191.31
2019-04-14T09:21:45.453Z,96196.69
2019-04-14T09:24:12.826Z,96198.64
2019-04-14T09:26:39.869Z,96195.70
2019-04-14T09:29:07.232Z,96199.53
2019-04-14T09:31:34.572Z,96191.03
2019-04-14T09:34:01.641Z,96191.09
2019-04-14T09:36:28.680Z,96188.54
2019-04-14T09:38:55.726Z,96198.72
2019-04-14T09:41:22.789Z,96193.72
2019-04-14T09:43:50.093Z,96193.73
2019-04-14T09:46:17.144Z,96189.98
2019-04-14T09:48:44.184Z,96188.34
2019-04-14T09:51:11.244Z,96186.52
2019-04-14T09:53:38.291Z,96189.17
2019-04-14T09:56:05.660Z,96188.30
2019-04-14T09:58:32.698Z,96185.12
2019-04-14T10:00:59.835Z,96187.59
2019-04-14T10:03:27.232Z,96181.41
2019-04-14T10:05:54.571Z,96181.76
2019-04-14T10:08:22.048Z,96184.19
2019-04-14T10:10:49.499Z,96184.83
2019-04-14T10:13:17.613Z,96179.38
2019-04-14T10:15:44.672Z,96181.51
2019-04-14T10:18:12.162Z,96182.17
2019-04-14T10:20:39.518Z,96180.53
2019-04-14T10:23:06.564Z,96188.24
2019-04-14T10:25:33.940Z,96188.02
2019-04-14T10:28:00.982Z,96184.80
2019-04-14T10:30:28.343Z,96191.06
2019-04-14T10:32:55.393Z,96192.70
2019-04-14T10:35:22.745Z,96188.98
2019-04-14T10:37:50.096Z,96186.67
2019-04-14T10:40:17.151Z,96178.70
2019-04-14T10:42:44.194Z,96174.42
2019-04-14T10:45:11.257Z,96186.86
2019-04-14T10:47:38.300Z,96190.69
2019-04-14T10:50:05.633Z,96188.09
2019-04-14T10:52:32.987Z,96197.80
2019-04-14T10:55:00.048Z,96197.20
2019-04-14T10:57:27.096Z,96194.62
2019-04-14T10:59:54.439Z,96197.78
2019-04-14T11:02:21.793Z,96200.91
2019-04-14T11:04:48.846Z,96204.80
2019-04-14T11:07:15.886Z,96196.57
2019-04-14T11:09:43.250Z,96201.97
2019-04-14T11:12:10.598Z,96196.49
2019-04-14T11:14:37.644Z,96197.83
2019-04-14T11:17:05.000Z,96191.86
2019-04-14T11:19:32.055Z,96184.11
2019-04-14T11:21:59.420Z,96189.95
2019-04-14T11:24:26.458Z,96198.00
2019-04-14T11:26:53.515Z,96208.01
2019-04-14T11:29:20.872Z,96211.65
2019-04-14T11:31:47.933Z,96213.20
2019-04-14T11:34:15.276Z,96206.02
2019-04-14T11:36:42.338Z,96202.44
2019-04-14T11:39:09.671Z,96201.18
2019-04-14T11:41:37.421Z,96196.13
2019-04-14T11:44:04.469Z,96200.05
2019-04-14T11:46:31.828Z,96200.30
2019-04-14T11:48:59.200Z,96210.34
2019-04-14T11:51:26.260Z,96211.13
2019-04-14T11:53:53.586Z,96204.53
2019-04-14T11:56:20.901Z,96219.48
2019-04-14T11:58:47.943Z,96222.27
2019-04-14T12:01:15.343Z,96214.52
2019-04-14T12:03:42.722Z,96219.24
2019-04-14T12:06:09.775Z,96216.30
2019-04-14T12:08:36.823Z,96223.70
2019-04-14T12:11:04.152Z,96228.98
2019-04-14T12:13:31.506Z,96224.58
2019-04-14T12:15:58.555Z,96222.61
2019-04-14T12:18:25.604Z,96230.34
2019-04-14T12:20:52.673Z,96233.55
2019-04-14T12:23:19.711Z,96228.78
2019-04-14T12:25:46.753Z,96236.88
2019-04-14T12:28:14.884Z,96230.06
2019-04-14T12:30:42.176Z,96230.64
2019-04-14T12:33:09.226Z,96236.18
2019-04-14T12:35:36.590Z,96229.27
2019-04-14T12:38:03.929Z,96229.63
2019-04-14T12:40:30.973Z,96232.08
2019-04-14T12:42:58.029Z,96229.85
2019-04-14T12:45:25.382Z,96223.90
2019-04-14T12:47:52.449Z,96246.23
2019-04-14T12:50:19.484Z,96224.88
2019-04-14T12:52:46.846Z,96228.12
2019-04-14T12:55:13.889Z,96230.98
2019-04-14T12:57:41.233Z,96227.89
2019-04-14T13:00:08.619Z,96221.80
2019-04-14T13:02:35.665Z,96216.19
2019-04-14T13:05:02.697Z,96226.42
2019-04-14T13:07:29.761Z,96227.13
2019-04-14T13:09:57.086Z,96229.52
2019-04-14T13:12:24.463Z,96238.72
2019-04-14T13:14:51.746Z,96238.11
2019-04-14T13:17:18.800Z,96232.06
2019-04-14T13:19:45.847Z,96238.26
2019-04-14T13:22:13.262Z,96235.31
2019-04-14T13:24:40.302Z,96237.01
2019-04-14T13:27:07.356Z,96240.08
2019-04-14T13:29:34.737Z,96246.15
2019-04-14T13:32:45.522Z,96249.91
2019-04-14T13:35:12.844Z,96245.32
2019-04-14T13:37:40.156Z,96251.67
2019-04-14T13:40:07.532Z,96254.12
2019-04-14T13:42:34.891Z,96246.30
2019-04-14T13:45:02.267Z,96247.12
2019-04-14T13:47:30.496Z,96246.09
2019-04-14T13:49:57.536Z,96250.19
2019-04-14T13:52:24.931Z,96254.11
2019-04-14T13:54:52.240Z,96258.52
2019-04-14T13:57:19.308Z,96252.13
2019-04-14T13:59:46.350Z,96260.32
2019-04-14T14:02:13.410Z,96260.64
2019-04-14T14:04:40.780Z,96253.62
2019-04-14T14:07:07.850Z,96259.70
2019-04-14T14:09:35.183Z,96259.02
2019-04-14T14:12:02.222Z,96256.73
2019-04-14T14:14:29.589Z,96254.91
2019-04-14T14:16:56.944Z,96265.27
2019-04-14T14:19:23.989Z,96252.66
2019-04-14T14:21:51.376Z,96263.63
2019-04-14T14:24:18.395Z,96260.66
2019-04-14T14:26:45.765Z,96259.86
2019-04-14T14:29:13.885Z,96260.52
2019-04-14T14:31:40.922Z,96247.61
2019-04-14T14:34:07.982Z,96253.66
2019-04-14T14:36:35.018Z,96258.23
2019-04-14T14:39:02.420Z,96259.21
2019-04-14T14:41:31.077Z,96259.58
2019-04-14T14:43:58.131Z,96261.70
2019-04-14T14:46:25.167Z,96264.58
2019-04-14T14:48:52.228Z,96266.73
2019-04-14T14:51:19.605Z,96274.83
2019-04-14T14:53:46.654Z,96269.92
2019-04-14T14:56:13.702Z,96261.46
2019-04-14T14:58:40.750Z,96267.78
2019-04-14T15:01:08.123Z,96263.79
2019-04-14T15:03:35.459Z,96270.18
2019-04-14T15:06:02.815Z,96275.16
2019-04-14T15:08:29.875Z,96269.20
2019-04-14T15:10:56.910Z,96285.80
2019-04-14T15:13:23.958Z,96287.84
2019-04-14T15:15:50.994Z,96292.27
2019-04-14T15:18:18.041Z,96293.25
2019-04-14T15:20:45.082Z,96285.47
2019-04-14T15:23:24.061Z,96294.11
2019-04-14T15:25:40.862Z,96300.32
2019-04-14T15:28:07.913Z,96307.94
2019-04-14T15:30:34.955Z,96304.09
2019-04-14T15:33:02.300Z,96313.63
2019-04-14T15:35:29.644Z,96312.42
2019-04-14T15:37:56.688Z,96314.25
2019-04-14T15:40:24.048Z,96317.23
2019-04-14T15:42:51.092Z,96325.77
2019-04-14T15:45:19.471Z,96318.06
2019-04-14T15:47:46.507Z,96322.88
2019-04-14T15:50:13.557Z,96325.86
2019-04-14T15:52:41.666Z,96331.40
2019-04-14T15:55:08.712Z,96333.28
2019-04-14T15:57:36.038Z,96332.41
2019-04-14T16:00:03.095Z,96344.61
2019-04-14T16:02:31.207Z,96336.46
2019-04-14T16:04:58.619Z,96342.20
2019-04-14T16:07:25.995Z,96337.94
2019-04-14T16:09:53.052Z,96344.30
2019-04-14T16:12:20.380Z,96347.44
2019-04-14T16:14:47.502Z,96339.86
2019-04-14T16:17:14.883Z,96347.45
2019-04-14T16:19:42.340Z,96353.17
2019-04-14T16:22:09.695Z,96359.33
2019-04-14T16:24:37.068Z,96354.90
2019-04-14T16:27:05.187Z,96352.02
2019-04-14T16:29:32.599Z,96352.05
2019-04-14T16:31:59.940Z,96355.77
2019-04-14T16:34:27.291Z,96349.44
2019-04-14T16:36:54.748Z,96358.56
2019-04-14T16:39:22.058Z,96360.81
2019-04-14T16:41:49.160Z,96366.14
2019-04-14T16:44:16.191Z,96367.40
2019-04-14T16:46:43.249Z,96367.47
2019-04-14T16:49:10.455Z,96370.40
2019-04-14T16:51:37.506Z,96377.23
2019-04-14T16:54:05.523Z,96376.46
2019-04-14T16:56:32.579Z,96374.77
2019-04-14T16:58:59.919Z,96386.24
2019-04-14T17:01:26.970Z,96382.28
2019-04-14T17:03:54.446Z,96387.05
2019-04-14T17:06:21.753Z,96390.25
2019-04-14T17:08:49.135Z,96397.56
2019-04-14T17:11:16.505Z,96403.70
2019-04-14T17:13:43.987Z,96398.58
2019-04-14T17:16:11.305Z,96401.43
2019-04-14T17:18:38.757Z,96410.91
2019-04-14T17:21:05.805Z,96416.41
2019-04-14T17:23:33.015Z,96415.59
2019-04-14T17:26:00.413Z,96415.08
2019-04-14T17:28:27.784Z,96417.42
2019-04-14T17:30:54.920Z,96415.21
2019-04-14T17:33:21.959Z,96422.94
2019-04-14T17:35:49.081Z,96425.23
2019-04-14T17:38:16.113Z,96434.33
2019-04-14T17:40:43.525Z,96433.45
2019-04-14T17:43:10.879Z,96437.03
2019-04-14T17:45:38.251Z,96437.44
2019-04-14T17:48:05.530Z,96447.95
2019-04-14T17:50:40.699Z,96446.94
2019-04-14T17:53:01.950Z,96454.61
2019-04-14T17:55:29.385Z,96461.46
2019-04-14T17:57:56.528Z,96461.02
2019-04-14T18:00:23.556Z,96464.47
2019-04-14T18:02:50.606Z,96470.72
2019-04-14T18:05:17.969Z,96468.98
2019-04-14T18:07:45.093Z,96470.39
2019-04-14T18:10:12.133Z,96469.70
2019-04-14T18:12:39.177Z,96476.66
2019-04-14T18:15:06.495Z,96477.39
2019-04-14T18:17:33.546Z,96484.81
2019-04-14T18:20:00.577Z,96482.36
2019-04-14T18:22:27.704Z,96487.19
2019-04-14T18:24:55.095Z,96487.08
2019-04-14T18:27:22.446Z,96492.30
2019-04-14T18:29:49.819Z,96486.77
2019-04-14T18:32:16.872Z,96497.12
2019-04-14T18:34:43.906Z,96492.65
2019-04-14T18:37:11.196Z,96494.41
2019-04-14T18:39:39.205Z,96503.70
2019-04-14T18:42:06.252Z,96502.77
2019-04-14T18:44:34.270Z,96509.11
2019-04-14T18:47:02.390Z,96506.65
2019-04-14T18:49:29.423Z,96518.17
2019-04-14T18:51:56.473Z,96512.53
2019-04-14T18:54:24.649Z,96518.52
2019-04-14T18:56:51.958Z,96521.93
2019-04-14T18:59:19.001Z,96525.11
2019-04-14T19:01:46.059Z,96522.88
2019-04-14T19:04:13.103Z,96528.97
2019-04-14T19:06:40.132Z,96534.72
2019-04-14T19:09:07.481Z,96538.27
2019-04-14T19:11:36.143Z,96547.17
2019-04-14T19:14:03.204Z,96546.31
2019-04-14T19:16:39.354Z,96552.74
2019-04-14T19:18:59.259Z,96552.62
2019-04-14T19:21:26.299Z,96557.55
2019-04-14T19:23:53.666Z,96559.55
2019-04-14T19:26:20.709Z,96555.52
2019-04-14T19:28:48.084Z,96554.09
2019-04-14T19:31:15.135Z,96555.63
2019-04-14T19:33:42.180Z,96560.06
2019-04-14T19:36:09.517Z,96554.27
2019-04-14T19:38:36.564Z,96560.80
2019-04-14T19:41:03.605Z,96564.75
2019-04-14T19:43:30.965Z,96559.45
2019-04-14T19:45:58.322Z,96565.33
2019-04-14T19:48:25.678Z,96567.08
2019-04-14T19:50:52.714Z,96573.61
2019-04-14T19:53:19.775Z,96571.70
2019-04-14T19:55:46.813Z,96572.17
2019-04-14T19:58:14.124Z,96575.33
2019-04-14T20:00:41.155Z,96573.78
2019-04-14T20:03:08.203Z,96575.55
2019-04-14T20:05:35.540Z,96577.77
2019-04-14T20:08:02.633Z,96580.70
2019-04-14T20:10:30.054Z,96582.70
2019-04-14T20:12:58.510Z,96587.00
2019-04-14T20:18:14.622Z,96584.61
2019-04-14T20:20:41.659Z,96589.95
2019-04-14T20:23:08.799Z,96581.02
2019-04-14T20:25:35.835Z,96584.96
2019-04-14T20:28:02.876Z,96592.77
2019-04-14T20:30:30.284Z,96597.70
2019-04-14T20:32:57.322Z,96594.60
2019-04-14T20:35:24.378Z,96595.53
2019-04-14T20:37:51.418Z,96593.59
2019-04-14T20:40:18.771Z,96593.03
2019-04-14T20:42:46.130Z,96583.38
2019-04-14T20:45:13.183Z,96589.21
2019-04-14T20:47:40.532Z,96589.31
2019-04-14T20:50:07.588Z,96600.05
2019-04-14T20:52:34.625Z,96589.58
2019-04-14T20:55:01.984Z,96597.98
2019-04-14T20:57:29.190Z,96607.47
2019-04-14T20:59:56.247Z,96605.45
2019-04-14T21:02:23.288Z,96602.88
2019-04-14T21:04:50.686Z,96607.31
2019-04-14T21:07:17.723Z,96615.05
2019-04-14T21:09:44.783Z,96620.25
2019-04-14T21:12:11.825Z,96619.83
2019-04-14T21:14:38.877Z,96624.36
2019-04-14T21:17:05.916Z,96622.55
2019-04-14T21:19:33.281Z,96629.20
2019-04-14T21:22:00.314Z,96627.88
2019-04-14T21:24:27.372Z,96630.92
2019-04-14T21:26:54.422Z,96626.79
2019-04-14T21:29:21.475Z,96626.06
2019-04-14T21:31:48.846Z,96632.50
2019-04-14T21:34:15.900Z,96633.89
2019-04-14T21:36:43.250Z,96634.81
2019-04-14T21:39:10.585Z,96635.02
2019-04-14T21:41:39.612Z,96638.05
2019-04-14T21:44:06.652Z,96636.30
2019-04-14T21:46:33.935Z,96638.16
2019-04-14T21:49:00.975Z,96638.91
2019-04-14T21:51:28.279Z,96641.85
2019-04-14T21:53:55.564Z,96648.03
2019-04-14T21:56:22.641Z,96649.80
2019-04-14T21:58:49.686Z,96652.31
2019-04-14T22:01:16.735Z,96647.45
2019-04-14T22:03:44.134Z,96652.80
2019-04-14T22:06:11.491Z,96649.95
2019-04-14T22:08:38.841Z,96647.25
2019-04-14T22:11:05.900Z,96651.91
2019-04-14T22:13:33.251Z,96659.98
2019-04-14T22:16:00.602Z,96659.16
2019-04-14T22:18:27.647Z,96662.10
2019-04-14T22:20:54.698Z,96660.58
2019-04-14T22:23:21.743Z,96652.59
2019-04-14T22:25:49.102Z,96653.97
2019-04-14T22:28:16.463Z,96654.89
2019-04-14T22:30:43.507Z,96658.02
2019-04-14T22:33:10.548Z,96657.47
2019-04-14T22:35:37.605Z,96665.36
2019-04-14T22:38:04.974Z,96663.34
2019-04-14T22:40:32.031Z,96666.94
2019-04-14T22:42:59.068Z,96661.42
2019-04-14T22:45:26.122Z,96671.27
2019-04-14T22:47:53.173Z,96668.69
2019-04-14T22:50:20.501Z,96673.01
2019-04-14T22:52:47.803Z,96668.88
2019-04-14T22:55:15.106Z,96666.50
2019-04-14T22:57:42.158Z,96659.70
2019-04-14T23:00:09.432Z,96662.63
2019-04-14T23:02:38.101Z,96666.86
2019-04-14T23:05:05.247Z,96656.20
2019-04-14T23:07:32.536Z,96663.00
2019-04-14T23:09:59.823Z,96657.58
2019-04-14T23:12:27.206Z,96646.92
2019-04-14T23:14:54.246Z,96648.94
2019-04-14T23:17:21.559Z,96650.30
2019-04-14T23:19:48.881Z,96658.56
2019-04-14T23:22:16.234Z,96665.59
2019-04-14T23:24:43.511Z,96666.13
2019-04-14T23:27:10.948Z,96666.47
2019-04-14T23:29:37.993Z,96668.86
2019-04-14T23:32:05.351Z,96673.44
2019-04-14T23:34:32.649Z,96672.81
2019-04-14T23:36:59.700Z,96666.38
2019-04-14T23:39:28.123Z,96661.23
2019-04-14T23:41:55.413Z,96662.78
2019-04-14T23:44:22.738Z,96654.23
2019-04-14T23:46:50.894Z,96664.27
2019-04-14T23:49:18.177Z,96665.55
2019-04-14T23:51:45.480Z,96657.73
2019-04-14T23:54:12.514Z,96666.55
2019-04-14T23:56:39.569Z,96663.77
2019-04-14T23:59:06.601Z,96659.05
